sensor_id;sensor_type;location;lat;lon;timestamp;P1;durP1;ratioP1;P2;durP2;ratioP2
20084;SDS011;10202;48.474;9.138;2023-08-06T00:02:05;2.30;;;2.10;;
20084;SDS011;10202;48.474;9.138;2023-08-06T00:04:30;2.17;;;1.98;;
20084;SDS011;10202;48.474;9.138;2023-08-06T00:06:56;7.22;;;2.20;;
20084;SDS011;10202;48.474;9.138;2023-08-06T00:09:21;3.42;;;2.28;;
20084;SDS011;10202;48.474;9.138;2023-08-06T00:11:49;3.30;;;2.00;;
20084;SDS011;10202;48.474;9.138;2023-08-06T00:14:14;4.20;;;2.20;;
20084;SDS011;10202;48.474;9.138;2023-08-06T00:16:44;5.13;;;2.22;;
20084;SDS011;10202;48.474;9.138;2023-08-06T00:19:10;2.22;;;1.90;;
20084;SDS011;10202;48.474;9.138;2023-08-06T00:21:41;2.92;;;1.92;;
20084;SDS011;10202;48.474;9.138;2023-08-06T00:24:06;1.92;;;1.83;;
20084;SDS011;10202;48.474;9.138;2023-08-06T00:26:34;1.63;;;1.52;;
20084;SDS011;10202;48.474;9.138;2023-08-06T00:28:59;2.80;;;1.65;;
20084;SDS011;10202;48.474;9.138;2023-08-06T00:31:29;1.75;;;1.60;;
20084;SDS011;10202;48.474;9.138;2023-08-06T00:33:57;1.88;;;1.52;;
20084;SDS011;10202;48.474;9.138;2023-08-06T00:36:23;1.40;;;1.30;;
20084;SDS011;10202;48.474;9.138;2023-08-06T00:38:50;2.42;;;1.50;;
20084;SDS011;10202;48.474;9.138;2023-08-06T00:41:18;1.38;;;1.27;;
20084;SDS011;10202;48.474;9.138;2023-08-06T00:43:46;1.73;;;1.63;;
20084;SDS011;10202;48.474;9.138;2023-08-06T00:46:14;3.60;;;1.70;;
20084;SDS011;10202;48.474;9.138;2023-08-06T00:48:40;1.70;;;1.30;;
20084;SDS011;10202;48.474;9.138;2023-08-06T00:51:06;2.72;;;1.30;;
20084;SDS011;10202;48.474;9.138;2023-08-06T00:53:34;1.60;;;1.20;;
20084;SDS011;10202;48.474;9.138;2023-08-06T00:56:03;1.10;;;1.00;;
20084;SDS011;10202;48.474;9.138;2023-08-06T00:58:31;2.78;;;1.50;;
20084;SDS011;10202;48.474;9.138;2023-08-06T01:00:59;4.25;;;1.25;;
20084;SDS011;10202;48.474;9.138;2023-08-06T01:03:27;1.70;;;1.20;;
20084;SDS011;10202;48.474;9.138;2023-08-06T01:05:58;1.63;;;1.42;;
20084;SDS011;10202;48.474;9.138;2023-08-06T01:08:33;2.60;;;1.60;;
20084;SDS011;10202;48.474;9.138;2023-08-06T01:14:14;4.43;;;1.58;;
20084;SDS011;10202;48.474;9.138;2023-08-06T01:16:45;2.00;;;1.27;;
20084;SDS011;10202;48.474;9.138;2023-08-06T01:19:18;3.13;;;1.30;;
20084;SDS011;10202;48.474;9.138;2023-08-06T01:21:46;3.40;;;1.50;;
20084;SDS011;10202;48.474;9.138;2023-08-06T01:24:15;3.00;;;1.70;;
20084;SDS011;10202;48.474;9.138;2023-08-06T01:26:55;2.70;;;1.60;;
20084;SDS011;10202;48.474;9.138;2023-08-06T01:29:39;6.05;;;1.60;;
20084;SDS011;10202;48.474;9.138;2023-08-06T01:32:10;3.50;;;1.45;;
20084;SDS011;10202;48.474;9.138;2023-08-06T01:34:37;4.78;;;1.90;;
20084;SDS011;10202;48.474;9.138;2023-08-06T01:37:04;7.70;;;1.77;;
20084;SDS011;10202;48.474;9.138;2023-08-06T01:39:33;3.17;;;1.77;;
20084;SDS011;10202;48.474;9.138;2023-08-06T01:42:02;2.95;;;1.90;;
20084;SDS011;10202;48.474;9.138;2023-08-06T01:44:30;3.33;;;1.88;;
20084;SDS011;10202;48.474;9.138;2023-08-06T01:46:56;2.38;;;1.65;;
20084;SDS011;10202;48.474;9.138;2023-08-06T01:49:23;6.45;;;1.88;;
20084;SDS011;10202;48.474;9.138;2023-08-06T01:51:54;3.22;;;1.40;;
20084;SDS011;10202;48.474;9.138;2023-08-06T01:54:22;1.88;;;1.50;;
20084;SDS011;10202;48.474;9.138;2023-08-06T01:56:49;2.92;;;1.80;;
20084;SDS011;10202;48.474;9.138;2023-08-06T01:59:15;2.97;;;1.73;;
20084;SDS011;10202;48.474;9.138;2023-08-06T02:01:40;2.72;;;1.85;;
20084;SDS011;10202;48.474;9.138;2023-08-06T02:04:08;4.20;;;1.65;;
20084;SDS011;10202;48.474;9.138;2023-08-06T02:06:38;8.32;;;1.85;;
20084;SDS011;10202;48.474;9.138;2023-08-06T02:09:03;3.33;;;1.40;;
20084;SDS011;10202;48.474;9.138;2023-08-06T02:11:29;3.33;;;1.85;;
20084;SDS011;10202;48.474;9.138;2023-08-06T02:13:54;3.72;;;1.50;;
20084;SDS011;10202;48.474;9.138;2023-08-06T02:16:20;1.63;;;1.35;;
20084;SDS011;10202;48.474;9.138;2023-08-06T02:18:45;2.15;;;1.60;;
20084;SDS011;10202;48.474;9.138;2023-08-06T02:21:10;2.53;;;1.70;;
20084;SDS011;10202;48.474;9.138;2023-08-06T02:23:41;4.18;;;1.80;;
20084;SDS011;10202;48.474;9.138;2023-08-06T02:26:09;3.03;;;1.85;;
20084;SDS011;10202;48.474;9.138;2023-08-06T02:28:34;3.13;;;1.50;;
20084;SDS011;10202;48.474;9.138;2023-08-06T02:31:00;2.88;;;1.70;;
20084;SDS011;10202;48.474;9.138;2023-08-06T02:33:31;1.80;;;1.35;;
20084;SDS011;10202;48.474;9.138;2023-08-06T02:36:02;3.05;;;1.63;;
20084;SDS011;10202;48.474;9.138;2023-08-06T02:38:29;2.70;;;1.60;;
20084;SDS011;10202;48.474;9.138;2023-08-06T02:41:02;2.15;;;1.50;;
20084;SDS011;10202;48.474;9.138;2023-08-06T02:43:28;3.03;;;1.73;;
20084;SDS011;10202;48.474;9.138;2023-08-06T02:45:58;2.58;;;1.30;;
20084;SDS011;10202;48.474;9.138;2023-08-06T02:48:25;2.33;;;1.48;;
20084;SDS011;10202;48.474;9.138;2023-08-06T02:50:58;1.48;;;1.10;;
20084;SDS011;10202;48.474;9.138;2023-08-06T02:53:25;2.08;;;1.15;;
20084;SDS011;10202;48.474;9.138;2023-08-06T02:55:50;2.55;;;1.20;;
20084;SDS011;10202;48.474;9.138;2023-08-06T02:58:20;2.20;;;1.00;;
20084;SDS011;10202;48.474;9.138;2023-08-06T03:00:58;2.45;;;1.20;;
20084;SDS011;10202;48.474;9.138;2023-08-06T03:03:36;1.55;;;1.20;;
20084;SDS011;10202;48.474;9.138;2023-08-06T03:06:04;2.88;;;1.40;;
20084;SDS011;10202;48.474;9.138;2023-08-06T03:08:43;1.42;;;1.13;;
20084;SDS011;10202;48.474;9.138;2023-08-06T03:11:09;1.67;;;1.10;;
20084;SDS011;10202;48.474;9.138;2023-08-06T03:13:34;1.70;;;1.20;;
20084;SDS011;10202;48.474;9.138;2023-08-06T03:16:05;2.55;;;1.52;;
20084;SDS011;10202;48.474;9.138;2023-08-06T03:18:35;9.93;;;1.20;;
20084;SDS011;10202;48.474;9.138;2023-08-06T03:21:04;1.83;;;1.15;;
20084;SDS011;10202;48.474;9.138;2023-08-06T03:23:32;2.28;;;1.08;;
20084;SDS011;10202;48.474;9.138;2023-08-06T03:26:04;1.85;;;1.02;;
20084;SDS011;10202;48.474;9.138;2023-08-06T03:28:32;2.67;;;1.25;;
20084;SDS011;10202;48.474;9.138;2023-08-06T03:31:03;2.65;;;1.08;;
20084;SDS011;10202;48.474;9.138;2023-08-06T03:33:42;2.88;;;1.00;;
20084;SDS011;10202;48.474;9.138;2023-08-06T03:36:12;1.42;;;1.02;;
20084;SDS011;10202;48.474;9.138;2023-08-06T03:38:41;4.22;;;1.30;;
20084;SDS011;10202;48.474;9.138;2023-08-06T03:41:13;2.65;;;1.38;;
20084;SDS011;10202;48.474;9.138;2023-08-06T03:43:43;3.45;;;1.17;;
20084;SDS011;10202;48.474;9.138;2023-08-06T03:46:15;2.28;;;1.35;;
20084;SDS011;10202;48.474;9.138;2023-08-06T03:48:45;1.02;;;0.93;;
20084;SDS011;10202;48.474;9.138;2023-08-06T03:51:11;2.97;;;1.35;;
20084;SDS011;10202;48.474;9.138;2023-08-06T03:53:38;4.70;;;1.30;;
20084;SDS011;10202;48.474;9.138;2023-08-06T03:56:06;2.30;;;1.35;;
20084;SDS011;10202;48.474;9.138;2023-08-06T03:58:36;2.55;;;1.33;;
20084;SDS011;10202;48.474;9.138;2023-08-06T04:01:02;3.65;;;1.40;;
20084;SDS011;10202;48.474;9.138;2023-08-06T04:03:36;2.67;;;1.40;;
20084;SDS011;10202;48.474;9.138;2023-08-06T04:06:04;2.05;;;1.25;;
20084;SDS011;10202;48.474;9.138;2023-08-06T04:08:31;3.08;;;1.23;;
20084;SDS011;10202;48.474;9.138;2023-08-06T04:10:57;2.88;;;1.38;;
20084;SDS011;10202;48.474;9.138;2023-08-06T04:13:27;2.33;;;1.10;;
20084;SDS011;10202;48.474;9.138;2023-08-06T04:15:52;2.17;;;1.27;;
20084;SDS011;10202;48.474;9.138;2023-08-06T04:18:18;4.45;;;1.23;;
20084;SDS011;10202;48.474;9.138;2023-08-06T04:20:47;1.77;;;1.00;;
20084;SDS011;10202;48.474;9.138;2023-08-06T04:23:14;3.00;;;1.35;;
20084;SDS011;10202;48.474;9.138;2023-08-06T04:25:42;3.38;;;1.10;;
20084;SDS011;10202;48.474;9.138;2023-08-06T04:28:10;1.98;;;1.30;;
20084;SDS011;10202;48.474;9.138;2023-08-06T04:30:36;3.42;;;1.17;;
20084;SDS011;10202;48.474;9.138;2023-08-06T04:33:09;2.60;;;1.42;;
20084;SDS011;10202;48.474;9.138;2023-08-06T04:35:37;2.95;;;1.23;;
20084;SDS011;10202;48.474;9.138;2023-08-06T04:38:04;2.63;;;1.10;;
20084;SDS011;10202;48.474;9.138;2023-08-06T04:40:35;1.23;;;1.02;;
20084;SDS011;10202;48.474;9.138;2023-08-06T04:43:01;2.38;;;1.40;;
20084;SDS011;10202;48.474;9.138;2023-08-06T04:45:30;1.48;;;0.90;;
20084;SDS011;10202;48.474;9.138;2023-08-06T04:47:58;2.75;;;1.10;;
20084;SDS011;10202;48.474;9.138;2023-08-06T04:50:23;0.80;;;0.80;;
20084;SDS011;10202;48.474;9.138;2023-08-06T04:52:51;5.95;;;1.10;;
20084;SDS011;10202;48.474;9.138;2023-08-06T04:55:16;3.72;;;1.10;;
20084;SDS011;10202;48.474;9.138;2023-08-06T04:57:44;2.97;;;1.10;;
20084;SDS011;10202;48.474;9.138;2023-08-06T05:00:12;2.63;;;0.98;;
20084;SDS011;10202;48.474;9.138;2023-08-06T05:02:42;4.70;;;1.08;;
20084;SDS011;10202;48.474;9.138;2023-08-06T05:05:10;1.80;;;1.00;;
20084;SDS011;10202;48.474;9.138;2023-08-06T05:07:40;1.88;;;1.10;;
20084;SDS011;10202;48.474;9.138;2023-08-06T05:10:11;2.00;;;0.80;;
20084;SDS011;10202;48.474;9.138;2023-08-06T05:12:39;4.57;;;1.23;;
20084;SDS011;10202;48.474;9.138;2023-08-06T05:15:09;1.70;;;1.00;;
20084;SDS011;10202;48.474;9.138;2023-08-06T05:17:37;0.95;;;0.85;;
20084;SDS011;10202;48.474;9.138;2023-08-06T05:20:03;1.52;;;0.90;;
20084;SDS011;10202;48.474;9.138;2023-08-06T05:22:31;3.95;;;0.82;;
20084;SDS011;10202;48.474;9.138;2023-08-06T05:24:59;2.50;;;1.00;;
20084;SDS011;10202;48.474;9.138;2023-08-06T05:27:27;2.05;;;1.02;;
20084;SDS011;10202;48.474;9.138;2023-08-06T05:29:55;3.35;;;0.82;;
20084;SDS011;10202;48.474;9.138;2023-08-06T05:32:24;0.70;;;0.70;;
20084;SDS011;10202;48.474;9.138;2023-08-06T05:34:51;3.42;;;0.85;;
20084;SDS011;10202;48.474;9.138;2023-08-06T05:37:17;1.50;;;0.55;;
20084;SDS011;10202;48.474;9.138;2023-08-06T05:39:42;2.85;;;0.73;;
20084;SDS011;10202;48.474;9.138;2023-08-06T05:42:08;1.98;;;0.70;;
20084;SDS011;10202;48.474;9.138;2023-08-06T05:44:36;0.85;;;0.60;;
20084;SDS011;10202;48.474;9.138;2023-08-06T05:47:01;1.30;;;0.70;;
20084;SDS011;10202;48.474;9.138;2023-08-06T05:49:29;0.80;;;0.50;;
20084;SDS011;10202;48.474;9.138;2023-08-06T05:51:54;0.95;;;0.60;;
20084;SDS011;10202;48.474;9.138;2023-08-06T05:54:24;0.88;;;0.57;;
20084;SDS011;10202;48.474;9.138;2023-08-06T05:56:54;0.43;;;0.43;;
20084;SDS011;10202;48.474;9.138;2023-08-06T05:59:22;0.90;;;0.50;;
20084;SDS011;10202;48.474;9.138;2023-08-06T06:01:47;1.73;;;0.60;;
20084;SDS011;10202;48.474;9.138;2023-08-06T06:04:13;1.38;;;0.70;;
20084;SDS011;10202;48.474;9.138;2023-08-06T06:06:43;1.38;;;0.50;;
20084;SDS011;10202;48.474;9.138;2023-08-06T06:09:10;1.25;;;0.65;;
20084;SDS011;10202;48.474;9.138;2023-08-06T06:11:37;0.80;;;0.60;;
20084;SDS011;10202;48.474;9.138;2023-08-06T06:14:05;1.42;;;0.40;;
20084;SDS011;10202;48.474;9.138;2023-08-06T06:16:33;2.40;;;0.52;;
20084;SDS011;10202;48.474;9.138;2023-08-06T06:18:59;1.17;;;0.52;;
20084;SDS011;10202;48.474;9.138;2023-08-06T06:21:27;0.88;;;0.60;;
20084;SDS011;10202;48.474;9.138;2023-08-06T06:23:52;1.75;;;0.40;;
20084;SDS011;10202;48.474;9.138;2023-08-06T06:26:20;2.28;;;0.50;;
20084;SDS011;10202;48.474;9.138;2023-08-06T06:28:48;2.63;;;0.50;;
20084;SDS011;10202;48.474;9.138;2023-08-06T06:31:16;0.88;;;0.50;;
20084;SDS011;10202;48.474;9.138;2023-08-06T06:33:43;1.73;;;0.40;;
20084;SDS011;10202;48.474;9.138;2023-08-06T06:36:11;0.95;;;0.50;;
20084;SDS011;10202;48.474;9.138;2023-08-06T06:38:39;0.85;;;0.50;;
20084;SDS011;10202;48.474;9.138;2023-08-06T06:41:08;0.50;;;0.40;;
20084;SDS011;10202;48.474;9.138;2023-08-06T06:43:36;2.35;;;0.60;;
20084;SDS011;10202;48.474;9.138;2023-08-06T06:46:05;1.20;;;0.52;;
20084;SDS011;10202;48.474;9.138;2023-08-06T06:48:31;2.55;;;0.60;;
20084;SDS011;10202;48.474;9.138;2023-08-06T06:51:00;0.45;;;0.45;;
20084;SDS011;10202;48.474;9.138;2023-08-06T06:53:27;0.82;;;0.40;;
20084;SDS011;10202;48.474;9.138;2023-08-06T06:55:56;3.13;;;0.47;;
20084;SDS011;10202;48.474;9.138;2023-08-06T06:58:24;2.80;;;0.50;;
20084;SDS011;10202;48.474;9.138;2023-08-06T07:00:51;1.25;;;0.70;;
20084;SDS011;10202;48.474;9.138;2023-08-06T07:03:19;0.95;;;0.40;;
20084;SDS011;10202;48.474;9.138;2023-08-06T07:05:47;0.70;;;0.40;;
20084;SDS011;10202;48.474;9.138;2023-08-06T07:08:14;0.30;;;0.30;;
20084;SDS011;10202;48.474;9.138;2023-08-06T07:10:45;0.30;;;0.30;;
20084;SDS011;10202;48.474;9.138;2023-08-06T07:13:10;0.30;;;0.30;;
20084;SDS011;10202;48.474;9.138;2023-08-06T07:15:35;1.50;;;0.40;;
20084;SDS011;10202;48.474;9.138;2023-08-06T07:18:01;0.30;;;0.30;;
20084;SDS011;10202;48.474;9.138;2023-08-06T07:20:26;0.70;;;0.30;;
20084;SDS011;10202;48.474;9.138;2023-08-06T07:22:54;0.43;;;0.30;;
20084;SDS011;10202;48.474;9.138;2023-08-06T07:25:19;0.30;;;0.30;;
20084;SDS011;10202;48.474;9.138;2023-08-06T07:27:45;1.15;;;0.30;;
20084;SDS011;10202;48.474;9.138;2023-08-06T07:30:16;0.30;;;0.30;;
20084;SDS011;10202;48.474;9.138;2023-08-06T07:32:43;1.13;;;0.50;;
20084;SDS011;10202;48.474;9.138;2023-08-06T07:35:09;0.82;;;0.50;;
20084;SDS011;10202;48.474;9.138;2023-08-06T07:37:40;1.10;;;0.32;;
20084;SDS011;10202;48.474;9.138;2023-08-06T07:40:08;0.47;;;0.32;;
20084;SDS011;10202;48.474;9.138;2023-08-06T07:42:34;0.40;;;0.30;;
20084;SDS011;10202;48.474;9.138;2023-08-06T07:44:59;0.40;;;0.30;;
20084;SDS011;10202;48.474;9.138;2023-08-06T07:47:25;1.05;;;0.25;;
20084;SDS011;10202;48.474;9.138;2023-08-06T07:49:53;0.32;;;0.20;;
20084;SDS011;10202;48.474;9.138;2023-08-06T07:52:21;1.48;;;0.40;;
20084;SDS011;10202;48.474;9.138;2023-08-06T07:54:46;0.35;;;0.30;;
20084;SDS011;10202;48.474;9.138;2023-08-06T07:57:12;2.95;;;0.32;;
20084;SDS011;10202;48.474;9.138;2023-08-06T07:59:41;0.68;;;0.25;;
20084;SDS011;10202;48.474;9.138;2023-08-06T08:02:06;0.22;;;0.22;;
20084;SDS011;10202;48.474;9.138;2023-08-06T08:04:31;0.82;;;0.20;;
20084;SDS011;10202;48.474;9.138;2023-08-06T08:06:59;1.30;;;0.20;;
20084;SDS011;10202;48.474;9.138;2023-08-06T08:09:27;0.30;;;0.30;;
20084;SDS011;10202;48.474;9.138;2023-08-06T08:11:56;0.35;;;0.25;;
20084;SDS011;10202;48.474;9.138;2023-08-06T08:14:23;0.38;;;0.20;;
20084;SDS011;10202;48.474;9.138;2023-08-06T08:16:49;0.50;;;0.20;;
20084;SDS011;10202;48.474;9.138;2023-08-06T08:19:14;0.57;;;0.35;;
20084;SDS011;10202;48.474;9.138;2023-08-06T08:21:42;0.52;;;0.30;;
20084;SDS011;10202;48.474;9.138;2023-08-06T08:24:12;0.55;;;0.20;;
20084;SDS011;10202;48.474;9.138;2023-08-06T08:26:38;1.27;;;0.20;;
20084;SDS011;10202;48.474;9.138;2023-08-06T08:29:03;0.38;;;0.20;;
20084;SDS011;10202;48.474;9.138;2023-08-06T08:31:28;0.20;;;0.20;;
20084;SDS011;10202;48.474;9.138;2023-08-06T08:33:59;0.10;;;0.10;;
20084;SDS011;10202;48.474;9.138;2023-08-06T08:36:26;0.20;;;0.20;;
20084;SDS011;10202;48.474;9.138;2023-08-06T08:38:53;0.30;;;0.30;;
20084;SDS011;10202;48.474;9.138;2023-08-06T08:41:21;0.25;;;0.17;;
20084;SDS011;10202;48.474;9.138;2023-08-06T08:43:50;1.45;;;0.32;;
20084;SDS011;10202;48.474;9.138;2023-08-06T08:46:17;0.20;;;0.20;;
20084;SDS011;10202;48.474;9.138;2023-08-06T08:48:46;0.10;;;0.10;;
20084;SDS011;10202;48.474;9.138;2023-08-06T08:51:15;0.25;;;0.25;;
20084;SDS011;10202;48.474;9.138;2023-08-06T08:53:43;0.90;;;0.30;;
20084;SDS011;10202;48.474;9.138;2023-08-06T08:56:12;0.30;;;0.20;;
20084;SDS011;10202;48.474;9.138;2023-08-06T08:58:43;0.20;;;0.20;;
20084;SDS011;10202;48.474;9.138;2023-08-06T09:01:09;0.38;;;0.20;;
20084;SDS011;10202;48.474;9.138;2023-08-06T09:03:40;0.25;;;0.25;;
20084;SDS011;10202;48.474;9.138;2023-08-06T09:06:06;0.35;;;0.30;;
20084;SDS011;10202;48.474;9.138;2023-08-06T09:08:39;0.28;;;0.28;;
20084;SDS011;10202;48.474;9.138;2023-08-06T09:11:08;0.45;;;0.30;;
20084;SDS011;10202;48.474;9.138;2023-08-06T09:13:40;1.85;;;0.28;;
20084;SDS011;10202;48.474;9.138;2023-08-06T09:16:07;2.85;;;0.30;;
20084;SDS011;10202;48.474;9.138;2023-08-06T09:18:33;0.63;;;0.20;;
20084;SDS011;10202;48.474;9.138;2023-08-06T09:21:01;0.15;;;0.15;;
20084;SDS011;10202;48.474;9.138;2023-08-06T09:23:30;0.57;;;0.20;;
20084;SDS011;10202;48.474;9.138;2023-08-06T09:25:58;0.20;;;0.20;;
20084;SDS011;10202;48.474;9.138;2023-08-06T09:28:36;0.15;;;0.15;;
20084;SDS011;10202;48.474;9.138;2023-08-06T09:31:03;1.02;;;0.20;;
20084;SDS011;10202;48.474;9.138;2023-08-06T09:33:29;0.17;;;0.17;;
20084;SDS011;10202;48.474;9.138;2023-08-06T09:35:54;0.10;;;0.10;;
20084;SDS011;10202;48.474;9.138;2023-08-06T09:38:23;0.22;;;0.20;;
20084;SDS011;10202;48.474;9.138;2023-08-06T09:40:50;0.10;;;0.10;;
20084;SDS011;10202;48.474;9.138;2023-08-06T09:43:15;0.20;;;0.20;;
20084;SDS011;10202;48.474;9.138;2023-08-06T09:45:43;0.20;;;0.20;;
20084;SDS011;10202;48.474;9.138;2023-08-06T09:48:09;1.40;;;0.30;;
20084;SDS011;10202;48.474;9.138;2023-08-06T09:50:36;0.20;;;0.20;;
20084;SDS011;10202;48.474;9.138;2023-08-06T09:53:03;0.47;;;0.30;;
20084;SDS011;10202;48.474;9.138;2023-08-06T09:55:32;0.20;;;0.20;;
20084;SDS011;10202;48.474;9.138;2023-08-06T09:58:01;1.85;;;0.30;;
20084;SDS011;10202;48.474;9.138;2023-08-06T10:00:28;0.28;;;0.20;;
20084;SDS011;10202;48.474;9.138;2023-08-06T10:02:58;0.20;;;0.20;;
20084;SDS011;10202;48.474;9.138;2023-08-06T10:05:27;0.82;;;0.20;;
20084;SDS011;10202;48.474;9.138;2023-08-06T10:07:56;0.70;;;0.20;;
20084;SDS011;10202;48.474;9.138;2023-08-06T10:10:27;0.65;;;0.20;;
20084;SDS011;10202;48.474;9.138;2023-08-06T10:12:54;0.68;;;0.20;;
20084;SDS011;10202;48.474;9.138;2023-08-06T10:15:25;0.80;;;0.40;;
20084;SDS011;10202;48.474;9.138;2023-08-06T10:17:52;0.10;;;0.10;;
20084;SDS011;10202;48.474;9.138;2023-08-06T10:20:18;0.10;;;0.10;;
20084;SDS011;10202;48.474;9.138;2023-08-06T10:22:46;0.20;;;0.20;;
20084;SDS011;10202;48.474;9.138;2023-08-06T10:25:29;0.32;;;0.13;;
20084;SDS011;10202;48.474;9.138;2023-08-06T10:27:55;0.20;;;0.20;;
20084;SDS011;10202;48.474;9.138;2023-08-06T10:30:29;0.20;;;0.20;;
20084;SDS011;10202;48.474;9.138;2023-08-06T10:32:59;0.20;;;0.20;;
20084;SDS011;10202;48.474;9.138;2023-08-06T10:38:02;0.20;;;0.20;;
20084;SDS011;10202;48.474;9.138;2023-08-06T10:45:58;0.25;;;0.20;;
20084;SDS011;10202;48.474;9.138;2023-08-06T10:48:37;0.20;;;0.20;;
20084;SDS011;10202;48.474;9.138;2023-08-06T10:51:06;0.30;;;0.30;;
20084;SDS011;10202;48.474;9.138;2023-08-06T10:53:33;0.30;;;0.30;;
20084;SDS011;10202;48.474;9.138;2023-08-06T10:56:03;0.20;;;0.20;;
20084;SDS011;10202;48.474;9.138;2023-08-06T10:58:42;0.43;;;0.20;;
20084;SDS011;10202;48.474;9.138;2023-08-06T11:01:11;0.20;;;0.20;;
20084;SDS011;10202;48.474;9.138;2023-08-06T11:03:44;0.20;;;0.20;;
20084;SDS011;10202;48.474;9.138;2023-08-06T11:06:22;0.20;;;0.20;;
20084;SDS011;10202;48.474;9.138;2023-08-06T11:08:56;0.10;;;0.10;;
20084;SDS011;10202;48.474;9.138;2023-08-06T11:11:26;0.55;;;0.45;;
20084;SDS011;10202;48.474;9.138;2023-08-06T11:13:54;0.52;;;0.30;;
20084;SDS011;10202;48.474;9.138;2023-08-06T11:16:23;0.20;;;0.20;;
20084;SDS011;10202;48.474;9.138;2023-08-06T11:18:52;0.30;;;0.30;;
20084;SDS011;10202;48.474;9.138;2023-08-06T11:21:22;0.20;;;0.20;;
20084;SDS011;10202;48.474;9.138;2023-08-06T11:23:48;0.40;;;0.40;;
20084;SDS011;10202;48.474;9.138;2023-08-06T11:26:18;0.20;;;0.20;;
20084;SDS011;10202;48.474;9.138;2023-08-06T11:28:52;0.30;;;0.30;;
20084;SDS011;10202;48.474;9.138;2023-08-06T11:31:20;0.77;;;0.77;;
20084;SDS011;10202;48.474;9.138;2023-08-06T11:33:52;0.43;;;0.43;;
20084;SDS011;10202;48.474;9.138;2023-08-06T11:36:33;0.82;;;0.40;;
20084;SDS011;10202;48.474;9.138;2023-08-06T11:39:02;3.58;;;2.10;;
20084;SDS011;10202;48.474;9.138;2023-08-06T11:41:29;0.28;;;0.25;;
20084;SDS011;10202;48.474;9.138;2023-08-06T11:44:02;3.15;;;1.77;;
20084;SDS011;10202;48.474;9.138;2023-08-06T11:46:51;0.88;;;0.55;;
20084;SDS011;10202;48.474;9.138;2023-08-06T11:49:22;0.55;;;0.55;;
20084;SDS011;10202;48.474;9.138;2023-08-06T11:52:09;0.20;;;0.20;;
20084;SDS011;10202;48.474;9.138;2023-08-06T11:54:36;0.50;;;0.40;;
20084;SDS011;10202;48.474;9.138;2023-08-06T11:57:07;0.20;;;0.20;;
20084;SDS011;10202;48.474;9.138;2023-08-06T11:59:38;0.20;;;0.20;;
20084;SDS011;10202;48.474;9.138;2023-08-06T12:02:07;0.20;;;0.20;;
20084;SDS011;10202;48.474;9.138;2023-08-06T12:07:29;0.17;;;0.17;;
20084;SDS011;10202;48.474;9.138;2023-08-06T12:09:58;0.20;;;0.20;;
20084;SDS011;10202;48.474;9.138;2023-08-06T12:12:28;0.20;;;0.20;;
20084;SDS011;10202;48.474;9.138;2023-08-06T12:14:56;0.20;;;0.20;;
20084;SDS011;10202;48.474;9.138;2023-08-06T12:17:22;0.40;;;0.40;;
20084;SDS011;10202;48.474;9.138;2023-08-06T12:19:49;0.20;;;0.20;;
20084;SDS011;10202;48.474;9.138;2023-08-06T12:22:19;0.35;;;0.35;;
20084;SDS011;10202;48.474;9.138;2023-08-06T12:24:52;2.45;;;0.50;;
20084;SDS011;10202;48.474;9.138;2023-08-06T12:27:23;2.90;;;0.68;;
20084;SDS011;10202;48.474;9.138;2023-08-06T12:29:48;4.00;;;0.63;;
20084;SDS011;10202;48.474;9.138;2023-08-06T12:32:19;0.45;;;0.45;;
20084;SDS011;10202;48.474;9.138;2023-08-06T12:34:45;0.73;;;0.60;;
20084;SDS011;10202;48.474;9.138;2023-08-06T12:37:12;0.68;;;0.60;;
20084;SDS011;10202;48.474;9.138;2023-08-06T12:39:41;0.57;;;0.57;;
20084;SDS011;10202;48.474;9.138;2023-08-06T12:42:06;0.70;;;0.70;;
20084;SDS011;10202;48.474;9.138;2023-08-06T12:44:36;1.05;;;0.60;;
20084;SDS011;10202;48.474;9.138;2023-08-06T12:47:01;0.70;;;0.70;;
20084;SDS011;10202;48.474;9.138;2023-08-06T12:49:27;1.60;;;0.60;;
20084;SDS011;10202;48.474;9.138;2023-08-06T12:51:56;0.80;;;0.70;;
20084;SDS011;10202;48.474;9.138;2023-08-06T12:54:24;0.70;;;0.60;;
20084;SDS011;10202;48.474;9.138;2023-08-06T12:56:56;0.93;;;0.70;;
20084;SDS011;10202;48.474;9.138;2023-08-06T12:59:24;0.75;;;0.60;;
20084;SDS011;10202;48.474;9.138;2023-08-06T13:01:52;0.75;;;0.75;;
20084;SDS011;10202;48.474;9.138;2023-08-06T13:04:20;1.00;;;0.60;;
20084;SDS011;10202;48.474;9.138;2023-08-06T13:06:45;0.60;;;0.60;;
20084;SDS011;10202;48.474;9.138;2023-08-06T13:09:15;0.45;;;0.45;;
20084;SDS011;10202;48.474;9.138;2023-08-06T13:11:41;0.70;;;0.70;;
20084;SDS011;10202;48.474;9.138;2023-08-06T13:14:10;0.63;;;0.55;;
20084;SDS011;10202;48.474;9.138;2023-08-06T13:16:37;0.60;;;0.50;;
20084;SDS011;10202;48.474;9.138;2023-08-06T13:19:06;0.52;;;0.50;;
20084;SDS011;10202;48.474;9.138;2023-08-06T13:21:35;0.30;;;0.30;;
20084;SDS011;10202;48.474;9.138;2023-08-06T13:24:22;0.60;;;0.60;;
20084;SDS011;10202;48.474;9.138;2023-08-06T13:26:50;1.65;;;0.70;;
20084;SDS011;10202;48.474;9.138;2023-08-06T13:29:18;0.63;;;0.60;;
20084;SDS011;10202;48.474;9.138;2023-08-06T13:31:46;0.50;;;0.50;;
20084;SDS011;10202;48.474;9.138;2023-08-06T13:34:16;0.60;;;0.60;;
20084;SDS011;10202;48.474;9.138;2023-08-06T13:36:44;0.82;;;0.60;;
20084;SDS011;10202;48.474;9.138;2023-08-06T13:39:17;0.50;;;0.50;;
20084;SDS011;10202;48.474;9.138;2023-08-06T13:41:45;0.50;;;0.45;;
20084;SDS011;10202;48.474;9.138;2023-08-06T13:44:15;0.40;;;0.40;;
20084;SDS011;10202;48.474;9.138;2023-08-06T13:46:45;0.50;;;0.50;;
20084;SDS011;10202;48.474;9.138;2023-08-06T13:49:13;0.85;;;0.50;;
20084;SDS011;10202;48.474;9.138;2023-08-06T13:51:41;0.30;;;0.30;;
20084;SDS011;10202;48.474;9.138;2023-08-06T13:54:08;1.50;;;0.50;;
20084;SDS011;10202;48.474;9.138;2023-08-06T13:56:41;0.40;;;0.40;;
20084;SDS011;10202;48.474;9.138;2023-08-06T13:59:09;0.38;;;0.38;;
20084;SDS011;10202;48.474;9.138;2023-08-06T14:01:38;0.40;;;0.35;;
20084;SDS011;10202;48.474;9.138;2023-08-06T14:04:08;1.23;;;0.50;;
20084;SDS011;10202;48.474;9.138;2023-08-06T14:06:36;0.40;;;0.40;;
20084;SDS011;10202;48.474;9.138;2023-08-06T14:09:01;0.40;;;0.40;;
20084;SDS011;10202;48.474;9.138;2023-08-06T14:11:32;0.63;;;0.40;;
20084;SDS011;10202;48.474;9.138;2023-08-06T14:13:58;0.20;;;0.20;;
20084;SDS011;10202;48.474;9.138;2023-08-06T14:16:25;0.40;;;0.40;;
20084;SDS011;10202;48.474;9.138;2023-08-06T14:18:50;1.95;;;0.35;;
20084;SDS011;10202;48.474;9.138;2023-08-06T14:21:18;0.35;;;0.30;;
20084;SDS011;10202;48.474;9.138;2023-08-06T14:23:51;0.40;;;0.30;;
20084;SDS011;10202;48.474;9.138;2023-08-06T14:26:22;0.28;;;0.28;;
20084;SDS011;10202;48.474;9.138;2023-08-06T14:28:47;1.55;;;0.50;;
20084;SDS011;10202;48.474;9.138;2023-08-06T14:31:21;0.28;;;0.28;;
20084;SDS011;10202;48.474;9.138;2023-08-06T14:33:46;0.30;;;0.25;;
20084;SDS011;10202;48.474;9.138;2023-08-06T14:36:12;0.52;;;0.30;;
20084;SDS011;10202;48.474;9.138;2023-08-06T14:38:37;0.47;;;0.30;;
20084;SDS011;10202;48.474;9.138;2023-08-06T14:41:05;0.30;;;0.30;;
20084;SDS011;10202;48.474;9.138;2023-08-06T14:43:31;0.73;;;0.30;;
20084;SDS011;10202;48.474;9.138;2023-08-06T14:45:59;0.30;;;0.30;;
20084;SDS011;10202;48.474;9.138;2023-08-06T14:48:24;0.90;;;0.40;;
20084;SDS011;10202;48.474;9.138;2023-08-06T14:50:55;0.20;;;0.20;;
20084;SDS011;10202;48.474;9.138;2023-08-06T14:53:25;0.52;;;0.40;;
20084;SDS011;10202;48.474;9.138;2023-08-06T14:55:52;1.38;;;0.40;;
20084;SDS011;10202;48.474;9.138;2023-08-06T14:58:19;0.38;;;0.38;;
20084;SDS011;10202;48.474;9.138;2023-08-06T15:00:49;0.30;;;0.30;;
20084;SDS011;10202;48.474;9.138;2023-08-06T15:03:19;0.30;;;0.30;;
20084;SDS011;10202;48.474;9.138;2023-08-06T15:05:50;0.40;;;0.40;;
20084;SDS011;10202;48.474;9.138;2023-08-06T15:08:20;0.63;;;0.38;;
20084;SDS011;10202;48.474;9.138;2023-08-06T15:10:50;0.30;;;0.30;;